createdAt,value
2017-08-17T00:02:22.551Z,9.50
2017-08-17T00:04:54.916Z,9.80
2017-08-17T00:07:24.662Z,10.47
2017-08-17T00:09:56.734Z,9.97
2017-08-17T00:12:26.386Z,10.00
2017-08-17T00:14:57.837Z,9.40
2017-08-17T00:17:27.844Z,9.00
2017-08-17T00:19:58.274Z,10.13
2017-08-17T00:22:27.842Z,9.67
2017-08-17T00:24:58.899Z,10.07
2017-08-17T00:27:28.324Z,9.47
2017-08-17T00:29:58.604Z,9.53
2017-08-17T00:32:28.867Z,9.90
2017-08-17T00:35:01.439Z,9.10
2017-08-17T00:37:30.944Z,9.63
2017-08-17T00:40:02.233Z,9.63
2017-08-17T00:42:31.914Z,9.47
2017-08-17T00:45:03.960Z,8.73
2017-08-17T00:47:33.784Z,9.00
2017-08-17T00:50:05.732Z,10.40
2017-08-17T00:52:35.418Z,10.33
2017-08-17T00:55:06.507Z,9.13
2017-08-17T00:57:36.331Z,9.10
2017-08-17T01:00:06.697Z,8.83
2017-08-17T01:02:36.647Z,9.37
2017-08-17T01:05:07.020Z,9.90
2017-08-17T01:07:36.663Z,9.10
2017-08-17T01:10:07.552Z,9.17
2017-08-17T01:12:37.289Z,9.50
2017-08-17T01:15:07.187Z,9.60
2017-08-17T01:17:37.089Z,8.70
2017-08-17T01:20:11.094Z,9.30
2017-08-17T01:22:42.947Z,8.50
2017-08-17T01:25:14.407Z,9.40
2017-08-17T01:27:44.093Z,8.50
2017-08-17T01:30:14.655Z,8.80
2017-08-17T01:32:44.194Z,9.60
2017-08-17T01:35:14.260Z,8.40
2017-08-17T01:37:44.418Z,8.67
2017-08-17T01:40:14.524Z,8.50
2017-08-17T01:42:47.042Z,8.53
2017-08-17T01:45:17.030Z,8.53
2017-08-17T01:47:47.344Z,8.57
2017-08-17T01:50:18.892Z,7.90
2017-08-17T01:52:49.347Z,8.63
2017-08-17T01:55:19.031Z,8.70
2017-08-17T01:57:49.728Z,8.50
2017-08-17T02:00:19.660Z,8.27
2017-08-17T02:02:50.480Z,8.47
2017-08-17T02:05:20.076Z,8.67
2017-08-17T02:07:55.577Z,8.23
2017-08-17T02:10:25.477Z,8.00
2017-08-17T02:12:56.216Z,8.53
2017-08-17T02:15:26.367Z,7.60
2017-08-17T02:17:58.981Z,8.50
2017-08-17T02:20:30.156Z,8.20
2017-08-17T02:23:01.651Z,8.03
2017-08-17T02:25:31.212Z,7.70
2017-08-17T02:30:41.316Z,8.17
2017-08-17T02:33:11.730Z,7.90
2017-08-17T02:35:43.773Z,7.83
2017-08-17T02:38:13.271Z,7.93
2017-08-17T02:40:44.680Z,7.67
2017-08-17T02:43:14.847Z,7.50
2017-08-17T02:45:44.630Z,7.80
2017-08-17T02:48:14.198Z,8.07
2017-08-17T02:50:44.710Z,7.53
2017-08-17T02:53:14.215Z,7.93
2017-08-17T02:55:44.630Z,8.07
2017-08-17T02:58:14.812Z,7.63
2017-08-17T03:00:45.011Z,7.90
2017-08-17T03:03:14.684Z,8.50
2017-08-17T03:05:44.466Z,7.80
2017-08-17T03:08:14.418Z,7.80
2017-08-17T03:10:45.768Z,7.40
2017-08-17T03:13:15.396Z,7.70
2017-08-17T03:15:47.004Z,7.60
2017-08-17T03:18:16.713Z,7.40
2017-08-17T03:20:46.626Z,8.00
2017-08-17T03:23:16.868Z,7.63
2017-08-17T03:25:46.392Z,8.00
2017-08-17T03:28:15.444Z,7.60
2017-08-17T03:30:49.815Z,7.50
2017-08-17T03:33:19.479Z,7.33
2017-08-17T03:35:48.733Z,7.17
2017-08-17T03:38:19.035Z,7.77
2017-08-17T03:40:48.550Z,7.23
2017-08-17T03:43:18.398Z,7.97
2017-08-17T03:45:51.020Z,8.10
2017-08-17T03:48:21.292Z,7.33
2017-08-17T03:50:52.314Z,7.50
2017-08-17T03:53:22.871Z,7.93
2017-08-17T03:55:53.548Z,7.73
2017-08-17T03:58:22.877Z,7.80
2017-08-17T04:00:54.574Z,7.80
2017-08-17T04:03:24.260Z,8.10
2017-08-17T04:05:55.337Z,8.33
2017-08-17T04:08:24.984Z,8.77
2017-08-17T04:10:55.723Z,8.47
2017-08-17T04:13:25.372Z,8.33
2017-08-17T04:15:56.531Z,8.97
2017-08-17T04:18:25.674Z,9.20
2017-08-17T04:20:55.301Z,9.67
2017-08-17T04:23:25.330Z,8.93
2017-08-17T04:25:55.582Z,10.50
2017-08-17T04:28:25.261Z,9.73
2017-08-17T04:30:56.835Z,9.93
2017-08-17T04:33:26.496Z,9.60
2017-08-17T04:35:56.780Z,10.13
2017-08-17T04:38:26.674Z,9.50
2017-08-17T04:40:57.321Z,10.07
2017-08-17T04:43:26.412Z,9.90
2017-08-17T04:45:57.760Z,10.70
2017-08-17T04:48:26.915Z,10.60
2017-08-17T04:50:57.114Z,10.00
2017-08-17T04:53:28.513Z,10.60
2017-08-17T04:55:58.760Z,10.60
2017-08-17T04:58:38.370Z,10.43
2017-08-17T05:01:10.167Z,10.63
2017-08-17T05:03:42.442Z,10.33
2017-08-17T05:06:14.123Z,10.70
2017-08-17T05:08:44.946Z,11.97
2017-08-17T05:11:15.299Z,10.60
2017-08-17T05:13:45.756Z,10.43
2017-08-17T05:16:15.509Z,11.50
2017-08-17T05:18:50.637Z,11.30
2017-08-17T05:21:20.867Z,11.20
2017-08-17T05:23:52.517Z,10.70
2017-08-17T05:26:23.454Z,10.60
2017-08-17T05:28:54.710Z,10.20
2017-08-17T05:31:25.332Z,10.77
2017-08-17T05:33:55.545Z,10.40
2017-08-17T05:36:25.831Z,10.73
2017-08-17T05:38:55.185Z,10.80
2017-08-17T05:41:24.203Z,10.80
2017-08-17T05:43:54.769Z,11.37
2017-08-17T05:46:24.923Z,10.20
2017-08-17T05:48:56.538Z,10.53
2017-08-17T05:51:26.001Z,10.70
2017-08-17T05:53:56.935Z,10.80
2017-08-17T05:56:25.984Z,10.80
2017-08-17T05:58:55.845Z,10.83
2017-08-17T06:01:25.163Z,10.40
2017-08-17T06:03:55.914Z,11.20
2017-08-17T06:06:25.061Z,11.60
2017-08-17T06:08:55.856Z,11.30
2017-08-17T06:11:25.607Z,11.47
2017-08-17T06:13:55.944Z,10.97
2017-08-17T06:16:26.762Z,10.60
2017-08-17T06:18:56.934Z,10.90
2017-08-17T06:21:27.263Z,10.80
2017-08-17T06:23:56.856Z,11.27
2017-08-17T06:26:25.910Z,10.33
2017-08-17T06:28:56.126Z,10.60
2017-08-17T06:31:25.683Z,10.70
2017-08-17T06:33:55.315Z,11.07
2017-08-17T06:36:24.554Z,11.20
2017-08-17T06:38:58.194Z,11.10
2017-08-17T06:46:53.156Z,9.90
2017-08-17T06:49:23.916Z,10.77
2017-08-17T06:51:55.350Z,10.67
2017-08-17T06:54:24.925Z,10.70
2017-08-17T06:56:57.316Z,9.80
2017-08-17T06:59:26.758Z,10.03
2017-08-17T07:01:57.076Z,9.70
2017-08-17T07:04:27.530Z,10.43
2017-08-17T07:06:58.485Z,10.47
2017-08-17T07:09:27.889Z,9.93
2017-08-17T07:11:59.680Z,10.73
2017-08-17T07:14:29.838Z,11.10
2017-08-17T07:16:59.982Z,10.23
2017-08-17T07:19:29.864Z,10.67
2017-08-17T07:21:59.999Z,9.90
2017-08-17T07:24:29.819Z,9.17
2017-08-17T07:27:10.512Z,11.07
2017-08-17T07:29:43.642Z,10.13
2017-08-17T07:32:12.935Z,10.00
2017-08-17T07:34:51.027Z,10.70
2017-08-17T07:37:22.936Z,9.90
2017-08-17T07:39:53.467Z,10.27
2017-08-17T07:42:23.162Z,10.23
2017-08-17T07:44:56.037Z,10.40
2017-08-17T07:47:26.322Z,9.33
2017-08-17T07:49:58.408Z,9.40
2017-08-17T07:52:28.832Z,9.50
2017-08-17T07:55:00.984Z,10.07
2017-08-17T07:57:30.961Z,10.90
2017-08-17T08:00:03.227Z,9.60
2017-08-17T08:03:06.866Z,9.43
2017-08-17T08:05:43.548Z,9.77
2017-08-17T08:08:17.521Z,9.03
2017-08-17T08:10:51.148Z,9.30
2017-08-17T08:13:21.004Z,9.90
2017-08-17T08:15:52.402Z,10.97
2017-08-17T08:18:23.011Z,10.77
2017-08-17T08:20:56.192Z,10.30
2017-08-17T08:23:25.916Z,11.47
2017-08-17T08:25:56.100Z,10.40
2017-08-17T08:28:25.598Z,11.93
2017-08-17T08:30:57.595Z,11.83
2017-08-17T08:33:32.816Z,12.13
2017-08-17T08:36:06.161Z,12.37
2017-08-17T08:38:35.657Z,12.83
2017-08-17T08:46:29.540Z,13.07
2017-08-17T08:49:00.068Z,13.97
2017-08-17T08:51:30.104Z,13.90
2017-08-17T08:53:59.971Z,14.07
2017-08-17T08:56:31.370Z,14.10
2017-08-17T08:59:02.870Z,14.77
2017-08-17T09:01:32.753Z,13.47
2017-08-17T09:04:04.126Z,15.07
2017-08-17T09:06:33.217Z,13.80
2017-08-17T09:09:05.391Z,15.60
2017-08-17T09:11:34.469Z,15.47
2017-08-17T09:14:05.559Z,15.03
2017-08-17T09:16:35.156Z,14.90
2017-08-17T09:19:06.040Z,15.03
2017-08-17T09:21:35.193Z,15.53
2017-08-17T09:24:07.403Z,14.73
2017-08-17T09:26:38.005Z,15.97
2017-08-17T09:29:11.016Z,15.80
2017-08-17T09:31:42.362Z,17.10
2017-08-17T09:34:13.169Z,15.37
2017-08-17T09:36:44.247Z,15.50
2017-08-17T09:39:13.927Z,16.47
2017-08-17T09:41:46.236Z,16.63
2017-08-17T09:44:15.956Z,16.17
2017-08-17T09:46:45.328Z,16.40
2017-08-17T09:49:15.220Z,15.73
2017-08-17T09:51:53.038Z,16.00
2017-08-17T09:54:24.687Z,16.50
2017-08-17T09:56:55.012Z,16.10
2017-08-17T09:59:24.715Z,15.57
2017-08-17T10:01:56.015Z,14.60
2017-08-17T10:04:26.545Z,15.97
2017-08-17T10:06:58.138Z,14.33
2017-08-17T10:09:28.453Z,14.50
2017-08-17T10:12:00.042Z,13.93
2017-08-17T10:14:30.618Z,14.57
2017-08-17T10:17:01.503Z,14.50
2017-08-17T10:19:32.109Z,14.43
2017-08-17T10:22:09.755Z,15.33
2017-08-17T10:24:43.053Z,14.57
2017-08-17T10:27:13.299Z,14.20
2017-08-17T10:29:47.894Z,14.27
2017-08-17T10:32:17.083Z,14.40
2017-08-17T10:35:09.519Z,14.27
2017-08-17T10:37:43.371Z,14.17
2017-08-17T10:40:12.895Z,14.20
2017-08-17T10:42:44.215Z,12.70
2017-08-17T10:45:13.732Z,12.60
2017-08-17T10:47:45.028Z,12.93
2017-08-17T10:50:15.025Z,13.80
2017-08-17T10:52:44.859Z,13.93
2017-08-17T10:55:18.887Z,13.80
2017-08-17T10:57:49.040Z,13.80
2017-08-17T11:00:19.151Z,13.57
2017-08-17T11:02:49.162Z,13.00
2017-08-17T11:05:18.723Z,13.20
2017-08-17T11:07:51.875Z,13.67
2017-08-17T11:10:20.858Z,12.40
2017-08-17T11:12:53.352Z,13.27
2017-08-17T11:15:22.467Z,13.17
2017-08-17T11:17:52.660Z,13.00
2017-08-17T11:21:46.747Z,13.00
2017-08-17T11:24:16.019Z,13.03
2017-08-17T11:26:45.544Z,12.50
2017-08-17T11:29:14.762Z,12.73
2017-08-17T11:31:45.034Z,11.40
2017-08-17T11:34:14.373Z,11.90
2017-08-17T11:36:44.166Z,12.13
2017-08-17T11:39:14.986Z,13.17
2017-08-17T11:41:44.831Z,12.57
2017-08-17T11:44:13.995Z,11.87
2017-08-17T11:46:44.901Z,12.40
2017-08-17T11:49:14.167Z,12.27
2017-08-17T11:51:45.551Z,11.73
2017-08-17T11:54:14.785Z,12.50
2017-08-17T11:56:45.735Z,11.10
2017-08-17T11:59:15.008Z,12.23
2017-08-17T12:01:44.201Z,11.07
2017-08-17T12:04:14.031Z,11.70
2017-08-17T12:06:44.573Z,9.90
2017-08-17T12:09:13.493Z,10.40
2017-08-17T12:11:44.515Z,9.90
2017-08-17T12:14:13.719Z,10.50
2017-08-17T12:16:45.001Z,10.60
2017-08-17T12:19:18.095Z,10.30
2017-08-17T12:21:49.723Z,10.83
2017-08-17T12:24:19.732Z,10.90
2017-08-17T12:26:50.892Z,10.53
2017-08-17T12:29:20.142Z,10.67
2017-08-17T12:31:53.748Z,9.47
2017-08-17T12:34:23.631Z,10.07
2017-08-17T12:36:53.843Z,9.63
2017-08-17T12:39:23.127Z,9.90
2017-08-17T12:41:53.718Z,9.87
2017-08-17T12:44:23.444Z,9.80
2017-08-17T12:46:53.550Z,9.40
2017-08-17T12:49:22.780Z,9.90
2017-08-17T12:51:55.424Z,10.07
2017-08-17T12:54:28.764Z,8.80
2017-08-17T12:56:58.729Z,9.00
2017-08-17T12:59:28.432Z,9.53
2017-08-17T13:02:00.474Z,9.50
2017-08-17T13:04:30.139Z,7.83
2017-08-17T13:06:59.525Z,9.60
2017-08-17T13:09:30.159Z,8.37
2017-08-17T13:12:04.899Z,8.30
2017-08-17T13:14:35.305Z,8.97
2017-08-17T13:17:05.492Z,8.60
2017-08-17T13:19:35.345Z,8.83
2017-08-17T13:22:05.147Z,8.23
2017-08-17T13:24:34.420Z,8.63
2017-08-17T13:27:04.965Z,8.33
2017-08-17T13:29:34.146Z,7.67
2017-08-17T13:32:05.333Z,8.23
2017-08-17T13:34:34.726Z,7.53
2017-08-17T13:37:07.402Z,8.23
2017-08-17T13:39:36.805Z,7.97
2017-08-17T13:42:07.195Z,8.30
2017-08-17T13:44:36.397Z,9.73
2017-08-17T13:47:06.733Z,12.33
2017-08-17T13:49:36.945Z,10.57
2017-08-17T13:52:06.509Z,10.57
2017-08-17T13:54:35.550Z,9.50
2017-08-17T13:57:07.447Z,9.33
2017-08-17T13:59:37.777Z,9.33
2017-08-17T14:02:07.586Z,8.77
2017-08-17T14:04:37.590Z,9.20
2017-08-17T14:07:06.727Z,8.93
2017-08-17T14:09:35.920Z,9.30
2017-08-17T14:12:05.927Z,9.40
2017-08-17T14:14:40.775Z,9.07
2017-08-17T14:17:10.022Z,8.57
2017-08-17T14:19:41.985Z,8.60
2017-08-17T14:22:11.883Z,8.40
2017-08-17T14:24:43.127Z,8.60
2017-08-17T14:27:12.645Z,8.37
2017-08-17T14:29:46.829Z,8.47
2017-08-17T14:32:15.986Z,8.30
2017-08-17T14:34:45.416Z,8.33
2017-08-17T14:37:17.146Z,8.90
2017-08-17T14:39:46.688Z,8.40
2017-08-17T14:42:16.063Z,8.30
2017-08-17T14:44:45.279Z,9.10
2017-08-17T14:47:14.453Z,9.20
2017-08-17T14:49:44.547Z,8.33
2017-08-17T14:52:14.068Z,8.17
2017-08-17T14:54:45.296Z,8.97
2017-08-17T14:57:14.810Z,9.30
2017-08-17T14:59:45.138Z,9.23
2017-08-17T15:02:14.900Z,8.97
2017-08-17T15:04:44.110Z,9.37
2017-08-17T15:07:13.372Z,9.50
2017-08-17T15:09:47.576Z,9.60
2017-08-17T15:12:16.786Z,8.83
2017-08-17T15:14:46.192Z,10.23
2017-08-17T15:17:15.565Z,10.80
2017-08-17T15:19:44.538Z,10.70
2017-08-17T15:22:13.892Z,9.63
2017-08-17T15:24:44.572Z,10.77
2017-08-17T15:27:19.345Z,9.80
2017-08-17T15:29:50.197Z,9.50
2017-08-17T15:32:19.492Z,9.90
2017-08-17T15:34:49.477Z,9.70
2017-08-17T15:37:19.709Z,11.37
2017-08-17T15:39:51.469Z,11.30
2017-08-17T15:42:25.222Z,11.97
2017-08-17T15:44:55.683Z,12.00
2017-08-17T15:47:25.564Z,11.10
2017-08-17T15:49:55.627Z,11.03
2017-08-17T15:52:24.738Z,10.80
2017-08-17T15:54:55.509Z,10.60
2017-08-17T15:57:24.727Z,11.50
2017-08-17T15:59:54.725Z,11.50
2017-08-17T16:02:24.216Z,11.50
2017-08-17T16:04:54.079Z,11.30
2017-08-17T16:07:23.516Z,11.20
2017-08-17T16:09:53.314Z,11.20
2017-08-17T16:12:22.335Z,10.87
2017-08-17T16:14:51.374Z,11.93
2017-08-17T16:17:20.728Z,10.60
2017-08-17T16:19:50.934Z,11.43
2017-08-17T16:22:20.112Z,12.10
2017-08-17T16:24:50.856Z,12.87
2017-08-17T16:27:20.236Z,13.93
2017-08-17T16:29:52.029Z,11.70
2017-08-17T16:32:21.465Z,11.10
2017-08-17T16:34:52.616Z,12.17
2017-08-17T16:37:21.859Z,12.20
2017-08-17T16:39:52.067Z,13.27
2017-08-17T16:42:21.540Z,13.83
2017-08-17T16:44:51.752Z,11.53
2017-08-17T16:47:21.895Z,12.53
2017-08-17T16:49:54.887Z,12.03
2017-08-17T16:52:24.233Z,12.13
2017-08-17T16:54:55.156Z,13.70
2017-08-17T16:57:24.771Z,13.47
2017-08-17T16:59:55.411Z,13.50
2017-08-17T17:02:24.955Z,14.57
2017-08-17T17:04:59.964Z,13.50
2017-08-17T17:07:31.231Z,13.60
2017-08-17T17:12:47.185Z,13.33
2017-08-17T17:15:17.759Z,13.90
2017-08-17T17:17:48.075Z,13.23
2017-08-17T17:20:17.853Z,14.80
2017-08-17T17:22:48.631Z,14.87
2017-08-17T17:25:19.065Z,15.63
2017-08-17T17:27:50.641Z,14.70
2017-08-17T17:30:19.937Z,15.67
2017-08-17T17:32:50.162Z,16.00
2017-08-17T17:35:19.745Z,15.80
2017-08-17T17:37:55.487Z,15.47
2017-08-17T17:40:24.730Z,15.47
2017-08-17T17:42:54.817Z,16.20
2017-08-17T17:45:24.074Z,16.67
2017-08-17T17:47:54.640Z,16.90
2017-08-17T17:50:23.968Z,18.03
2017-08-17T17:52:54.691Z,16.30
2017-08-17T17:55:23.867Z,16.47
2017-08-17T17:57:54.236Z,17.53
2017-08-17T18:00:23.623Z,17.40
2017-08-17T18:02:56.445Z,16.90
2017-08-17T18:05:25.693Z,17.83
2017-08-17T18:07:56.304Z,17.80
2017-08-17T18:10:25.545Z,17.47
2017-08-17T18:12:56.377Z,17.70
2017-08-17T18:15:29.527Z,18.03
2017-08-17T18:17:59.823Z,18.33
2017-08-17T18:20:29.097Z,17.80
2017-08-17T18:22:59.807Z,18.60
2017-08-17T18:25:29.376Z,20.27
2017-08-17T18:28:00.016Z,20.60
2017-08-17T18:30:29.358Z,19.43
2017-08-17T18:33:00.104Z,20.07
2017-08-17T18:35:31.195Z,20.17
2017-08-17T18:38:01.977Z,19.40
2017-08-17T18:40:31.971Z,20.90
2017-08-17T18:43:04.832Z,19.90
2017-08-17T18:45:34.215Z,19.57
2017-08-17T18:48:05.831Z,20.23
2017-08-17T18:50:35.589Z,21.37
2017-08-17T18:53:07.354Z,20.90
2017-08-17T18:55:37.152Z,21.63
2017-08-17T18:58:07.175Z,20.17
2017-08-17T19:00:36.654Z,19.90
2017-08-17T19:03:08.971Z,20.70
2017-08-17T19:05:40.899Z,21.00
2017-08-17T19:08:10.207Z,20.30
2017-08-17T19:10:39.347Z,20.20
2017-08-17T19:13:08.612Z,20.33
2017-08-17T19:15:38.617Z,21.17
2017-08-17T19:18:12.224Z,19.60
2017-08-17T19:20:43.415Z,20.77
2017-08-17T19:23:13.808Z,19.30
2017-08-17T19:25:44.584Z,20.53
2017-08-17T19:28:13.738Z,20.53
2017-08-17T19:30:42.890Z,19.63
2017-08-17T19:33:12.784Z,20.20
2017-08-17T19:35:44.984Z,20.27
2017-08-17T19:38:14.028Z,19.40
2017-08-17T19:40:45.201Z,18.27
2017-08-17T19:43:14.531Z,19.17
2017-08-17T19:45:44.494Z,18.10
2017-08-17T19:48:15.213Z,18.63
2017-08-17T19:50:45.475Z,17.43
2017-08-17T19:53:20.817Z,18.43
2017-08-17T19:55:51.722Z,17.33
2017-08-17T19:58:20.710Z,16.43
2017-08-17T20:00:51.681Z,18.13
2017-08-17T20:03:20.634Z,16.63
2017-08-17T20:05:52.325Z,18.57
2017-08-17T20:08:21.661Z,17.40
2017-08-17T20:10:52.518Z,17.37
2017-08-17T20:13:22.552Z,17.87
2017-08-17T20:15:57.363Z,18.13
2017-08-17T20:18:26.482Z,16.80
2017-08-17T20:20:58.092Z,16.17
2017-08-17T20:23:28.318Z,16.10
2017-08-17T20:25:59.636Z,16.10
2017-08-17T20:28:29.487Z,16.93
2017-08-17T20:30:59.961Z,15.60
2017-08-17T20:33:29.343Z,16.07
2017-08-17T20:35:59.419Z,16.10
2017-08-17T20:38:29.033Z,16.00
2017-08-17T20:40:59.278Z,15.20
2017-08-17T20:43:29.045Z,15.70
2017-08-17T20:46:02.201Z,16.07
2017-08-17T20:48:37.934Z,15.27
2017-08-17T20:51:08.145Z,16.00
2017-08-17T20:53:38.323Z,15.80
2017-08-17T20:56:08.627Z,15.93
2017-08-17T20:58:40.226Z,15.60
2017-08-17T21:01:12.075Z,15.37
2017-08-17T21:03:44.353Z,15.10
2017-08-17T21:06:14.739Z,15.33
2017-08-17T21:08:44.601Z,16.77
2017-08-17T21:11:14.448Z,14.90
2017-08-17T21:13:43.619Z,16.27
2017-08-17T21:16:14.051Z,14.83
2017-08-17T21:18:44.462Z,14.57
2017-08-17T21:21:15.066Z,16.03
2017-08-17T21:23:45.766Z,14.97
2017-08-17T21:26:16.389Z,15.10
2017-08-17T21:28:45.822Z,15.90
2017-08-17T21:31:15.090Z,14.87
2017-08-17T21:33:45.930Z,15.03
2017-08-17T21:36:15.111Z,15.23
2017-08-17T21:38:44.728Z,14.43
2017-08-17T21:41:14.068Z,14.97
2017-08-17T21:43:45.735Z,14.90
2017-08-17T21:46:14.799Z,15.30
2017-08-17T21:48:46.428Z,14.83
2017-08-17T21:51:15.584Z,15.43
2017-08-17T21:53:45.714Z,14.00
2017-08-17T21:56:15.057Z,14.40
2017-08-17T21:58:44.921Z,14.23
2017-08-17T22:01:14.355Z,13.87
2017-08-17T22:03:47.238Z,15.00
2017-08-17T22:06:16.741Z,13.40
2017-08-17T22:08:46.532Z,13.47
2017-08-17T22:11:16.700Z,14.67
2017-08-17T22:13:46.308Z,14.00
2017-08-17T22:16:15.515Z,14.30
2017-08-17T22:18:49.418Z,15.33
2017-08-17T22:21:18.894Z,13.07
2017-08-17T22:23:49.099Z,14.30
2017-08-17T22:26:18.441Z,13.57
2017-08-17T22:28:49.028Z,14.37
2017-08-17T22:31:18.300Z,13.30
2017-08-17T22:33:48.628Z,13.20
2017-08-17T22:36:19.054Z,13.23
2017-08-17T22:38:49.188Z,13.40
2017-08-17T22:41:21.705Z,13.33
2017-08-17T22:43:54.213Z,13.60
2017-08-17T22:46:24.294Z,12.73
2017-08-17T22:48:55.227Z,11.53
2017-08-17T22:51:24.732Z,12.60
2017-08-17T22:53:54.780Z,12.63
2017-08-17T22:56:24.521Z,12.93
2017-08-17T22:58:54.359Z,12.33
2017-08-17T23:01:24.274Z,12.70
2017-08-17T23:03:55.013Z,12.90
2017-08-17T23:06:24.881Z,12.60
2017-08-17T23:08:56.069Z,12.20
2017-08-17T23:11:26.097Z,12.63
2017-08-17T23:13:56.014Z,11.70
2017-08-17T23:16:26.014Z,11.97
2017-08-17T23:18:55.420Z,12.70
2017-08-17T23:21:25.144Z,11.50
2017-08-17T23:23:54.420Z,12.73
2017-08-17T23:26:25.298Z,11.40
2017-08-17T23:28:54.269Z,12.40
2017-08-17T23:31:24.584Z,12.00
2017-08-17T23:33:57.423Z,11.13
2017-08-17T23:36:27.159Z,10.97
2017-08-17T23:38:56.629Z,10.43
2017-08-17T23:41:25.868Z,12.00
2017-08-17T23:43:55.657Z,10.83
2017-08-17T23:46:26.122Z,11.10
2017-08-17T23:49:01.909Z,10.77
2017-08-17T23:51:37.040Z,10.30
2017-08-17T23:54:07.989Z,10.40
2017-08-17T23:56:43.420Z,11.10
2017-08-17T23:59:13.606Z,11.60
